Time;durP1;ratioP1;P1;durP2;ratioP2;P2;SDS_P1;SDS_P2;PMS_P1;PMS_P2;Temp;Humidity;BMP_temperature;BMP_pressure;BME280_temperature;BME280_humidity;BME280_pressure;Samples;Min_cycle;Max_cycle;Signal;HPM_P1;HPM_P2
2021/04/13 00:00:30;;;;;;;2.60;2.40;;;;;;;;;;5117452;28;20617;-74
2021/04/13 00:03:02;;;;;;;2.90;2.60;;;;;;;;;;5109111;28;20723;-73
2021/04/13 00:05:32;;;;;;;3.27;2.37;;;;;;;;;;5117972;28;20248;-73
2021/04/13 00:08:00;;;;;;;4.27;2.67;;;;;;;;;;5119777;28;20292;-73
2021/04/13 00:10:29;;;;;;;3.53;2.67;;;;;;;;;;5118483;28;20287;-72
2021/04/13 00:12:57;;;;;;;4.43;2.40;;;;;;;;;;5118456;28;20695;-72
2021/04/13 00:15:26;;;;;;;2.73;2.50;;;;;;;;;;5118292;28;20248;-73
2021/04/13 00:17:54;;;;;;;3.80;2.73;;;;;;;;;;5119789;28;20268;-72
2021/04/13 00:20:27;;;;;;;4.50;2.60;;;;;;;;;;5105135;28;20611;-73
2021/04/13 00:22:54;;;;;;;4.90;2.70;;;;;;;;;;5117641;28;20276;-73
2021/04/13 00:25:24;;;;;;;4.97;2.50;;;;;;;;;;5109942;28;20279;-73
2021/04/13 00:27:51;;;;;;;2.77;2.43;;;;;;;;;;5106643;28;20204;-72
2021/04/13 00:30:21;;;;;;;3.73;3.10;;;;;;;;;;5118285;28;20602;-73
2021/04/13 00:32:49;;;;;;;5.60;2.90;;;;;;;;;;5118242;28;20256;-74
2021/04/13 00:35:29;;;;;;;2.97;2.67;;;;;;;;;;5118091;28;20304;-73
2021/04/13 00:38:29;;;;;;;6.57;2.60;;;;;;;;;;5118995;28;20231;-74
2021/04/13 00:41:00;;;;;;;4.07;3.10;;;;;;;;;;5055476;28;20242;-74
2021/04/13 00:43:28;;;;;;;3.73;2.53;;;;;;;;;;5056056;28;20241;-74
2021/04/13 00:45:57;;;;;;;3.37;2.60;;;;;;;;;;5084866;28;20269;-73
2021/04/13 00:48:27;;;;;;;3.07;2.77;;;;;;;;;;5117600;28;20665;-74
2021/04/13 00:50:55;;;;;;;3.90;2.70;;;;;;;;;;5119132;28;20215;-74
2021/04/13 00:53:24;;;;;;;3.87;2.90;;;;;;;;;;5117532;28;20220;-74
2021/04/13 00:55:54;;;;;;;3.70;2.70;;;;;;;;;;5116367;28;20262;-74
2021/04/13 00:58:23;;;;;;;4.00;2.57;;;;;;;;;;5118606;28;20198;-73
2021/04/13 01:00:52;;;;;;;4.13;2.57;;;;;;;;;;5114033;28;20269;-74
2021/04/13 01:03:19;;;;;;;2.90;2.67;;;;;;;;;;5118909;28;20207;-74
2021/04/13 01:05:48;;;;;;;3.47;2.37;;;;;;;;;;5109059;28;20252;-74
2021/04/13 01:08:21;;;;;;;3.80;3.07;;;;;;;;;;5112082;28;20731;-74
2021/04/13 01:10:48;;;;;;;3.10;2.17;;;;;;;;;;5117834;28;20197;-74
2021/04/13 01:13:17;;;;;;;3.40;2.77;;;;;;;;;;5118008;28;20224;-73
2021/04/13 01:15:46;;;;;;;5.53;2.80;;;;;;;;;;5112018;28;20243;-73
2021/04/13 01:18:18;;;;;;;4.20;3.10;;;;;;;;;;5111177;28;20232;-73
2021/04/13 01:20:49;;;;;;;5.50;2.80;;;;;;;;;;5112576;28;20672;-73
2021/04/13 01:23:21;;;;;;;2.63;2.43;;;;;;;;;;5109643;28;20276;-73
2021/04/13 01:25:54;;;;;;;4.90;3.07;;;;;;;;;;5108463;28;20264;-73
2021/04/13 01:28:23;;;;;;;3.53;3.00;;;;;;;;;;5109133;28;20258;-73
2021/04/13 01:30:53;;;;;;;3.10;2.80;;;;;;;;;;5113583;28;20208;-73
2021/04/13 01:33:22;;;;;;;3.93;2.87;;;;;;;;;;5103281;28;20256;-73
2021/04/13 01:35:52;;;;;;;3.40;2.90;;;;;;;;;;5108300;28;20627;-73
2021/04/13 01:38:21;;;;;;;3.40;3.10;;;;;;;;;;5113943;28;20739;-73
2021/04/13 01:41:03;;;;;;;3.80;2.73;;;;;;;;;;5118488;28;20288;-72
2021/04/13 01:43:32;;;;;;;5.03;3.40;;;;;;;;;;5109705;28;20277;-73
2021/04/13 01:46:01;;;;;;;4.43;3.40;;;;;;;;;;5114795;28;20268;-73
2021/04/13 01:48:28;;;;;;;5.33;3.60;;;;;;;;;;5112567;28;20207;-73
2021/04/13 01:50:57;;;;;;;6.23;3.57;;;;;;;;;;5110756;28;20263;-73
2021/04/13 01:53:26;;;;;;;5.50;3.90;;;;;;;;;;5111338;28;20679;-72
2021/04/13 01:55:53;;;;;;;5.53;4.03;;;;;;;;;;5100540;28;20240;-73
2021/04/13 01:58:23;;;;;;;4.90;3.70;;;;;;;;;;5116379;28;20232;-73
2021/04/13 02:00:53;;;;;;;6.03;3.57;;;;;;;;;;5110238;28;20233;-73
2021/04/13 02:03:24;;;;;;;5.43;3.57;;;;;;;;;;5115564;28;20232;-73
2021/04/13 02:05:54;;;;;;;5.00;3.70;;;;;;;;;;5109224;28;20305;-73
2021/04/13 02:08:27;;;;;;;4.97;3.80;;;;;;;;;;5113584;28;20272;-73
2021/04/13 02:10:56;;;;;;;4.17;3.53;;;;;;;;;;5108664;28;20230;-73
2021/04/13 02:13:27;;;;;;;4.33;2.97;;;;;;;;;;5110080;28;20261;-73
2021/04/13 02:15:57;;;;;;;4.87;3.67;;;;;;;;;;5107109;28;20250;-73
2021/04/13 02:18:29;;;;;;;5.03;3.37;;;;;;;;;;5116125;27;20299;-73
2021/04/13 02:20:57;;;;;;;4.60;4.07;;;;;;;;;;5117239;28;20292;-73
2021/04/13 02:23:28;;;;;;;5.13;4.07;;;;;;;;;;5117498;28;20288;-72
2021/04/13 02:25:55;;;;;;;4.53;3.50;;;;;;;;;;5117947;28;20231;-73
2021/04/13 02:28:22;;;;;;;7.20;3.33;;;;;;;;;;5107086;28;20205;-73
2021/04/13 02:30:50;;;;;;;5.00;3.60;;;;;;;;;;5121907;28;20291;-73
2021/04/13 02:33:28;;;;;;;5.77;3.90;;;;;;;;;;5114737;28;20225;-73
2021/04/13 02:35:57;;;;;;;5.03;3.23;;;;;;;;;;5120984;28;20299;-73
2021/04/13 02:38:27;;;;;;;5.87;3.60;;;;;;;;;;5107272;28;20238;-73
2021/04/13 02:40:58;;;;;;;5.13;3.20;;;;;;;;;;5120873;28;20617;-73
2021/04/13 02:43:27;;;;;;;4.27;3.13;;;;;;;;;;5121548;27;20204;-72
2021/04/13 02:45:56;;;;;;;4.23;3.47;;;;;;;;;;5112417;28;20270;-73
2021/04/13 02:48:25;;;;;;;5.20;3.37;;;;;;;;;;5119852;28;20232;-73
2021/04/13 02:50:54;;;;;;;6.20;3.23;;;;;;;;;;5114304;28;20209;-73
2021/04/13 02:53:25;;;;;;;4.80;3.67;;;;;;;;;;5114198;28;20260;-73
2021/04/13 02:55:53;;;;;;;5.97;3.37;;;;;;;;;;5119991;28;20216;-73
2021/04/13 02:58:22;;;;;;;5.10;3.27;;;;;;;;;;5105747;28;20229;-73
2021/04/13 03:00:51;;;;;;;6.77;4.23;;;;;;;;;;5118858;28;20215;-73
2021/04/13 03:03:19;;;;;;;3.70;3.17;;;;;;;;;;5116811;28;20627;-73
2021/04/13 03:05:51;;;;;;;4.53;3.53;;;;;;;;;;5121012;28;20312;-73
2021/04/13 03:08:19;;;;;;;5.50;3.47;;;;;;;;;;5119744;28;20201;-73
2021/04/13 03:10:49;;;;;;;4.63;3.60;;;;;;;;;;5118480;28;20730;-73
2021/04/13 03:13:18;;;;;;;4.97;3.90;;;;;;;;;;5118817;27;20224;-74
2021/04/13 03:15:50;;;;;;;7.00;3.47;;;;;;;;;;5112996;28;20304;-73
2021/04/13 03:18:18;;;;;;;5.23;3.63;;;;;;;;;;5117162;28;20205;-74
2021/04/13 03:20:46;;;;;;;5.20;3.93;;;;;;;;;;5115055;28;20261;-74
2021/04/13 03:23:14;;;;;;;7.27;3.67;;;;;;;;;;5112758;28;20288;-74
2021/04/13 03:25:42;;;;;;;8.43;4.07;;;;;;;;;;5119217;28;20780;-74
2021/04/13 03:28:13;;;;;;;5.90;3.57;;;;;;;;;;5110579;28;20236;-73
2021/04/13 03:30:41;;;;;;;4.93;3.23;;;;;;;;;;5120177;28;20287;-74
2021/04/13 03:33:12;;;;;;;7.20;3.63;;;;;;;;;;5102566;27;20308;-74
2021/04/13 03:35:39;;;;;;;5.83;3.93;;;;;;;;;;5116688;28;20601;-74
2021/04/13 03:38:08;;;;;;;8.53;4.13;;;;;;;;;;5118569;28;20247;-74
2021/04/13 03:40:37;;;;;;;8.50;3.67;;;;;;;;;;5123779;27;20279;-74
2021/04/13 03:43:04;;;;;;;6.77;3.40;;;;;;;;;;5120441;28;20271;-73
2021/04/13 03:45:33;;;;;;;8.10;4.40;;;;;;;;;;5118956;27;20284;-73
2021/04/13 03:48:01;;;;;;;9.00;4.33;;;;;;;;;;5119159;28;20201;-74
2021/04/13 03:50:30;;;;;;;8.17;4.73;;;;;;;;;;5119396;28;20285;-73
2021/04/13 03:53:02;;;;;;;7.97;4.20;;;;;;;;;;5120017;28;20334;-73
2021/04/13 03:55:29;;;;;;;10.00;4.37;;;;;;;;;;5104467;28;20217;-73
2021/04/13 03:57:56;;;;;;;6.67;3.97;;;;;;;;;;5105499;28;20279;-74
2021/04/13 04:00:25;;;;;;;7.60;4.40;;;;;;;;;;5108749;28;20291;-74
2021/04/13 04:02:53;;;;;;;6.90;3.93;;;;;;;;;;5119059;28;20196;-73
2021/04/13 04:05:22;;;;;;;6.83;4.50;;;;;;;;;;5106046;28;20224;-73
2021/04/13 04:07:53;;;;;;;5.23;3.80;;;;;;;;;;5106803;28;20255;-74
2021/04/13 04:10:30;;;;;;;7.03;3.70;;;;;;;;;;5118343;28;20234;-74
2021/04/13 04:13:00;;;;;;;4.87;3.77;;;;;;;;;;5118562;28;20217;-74
2021/04/13 04:15:29;;;;;;;6.37;4.00;;;;;;;;;;5108047;28;20217;-74
2021/04/13 04:17:57;;;;;;;6.70;3.70;;;;;;;;;;5110416;28;20723;-74
2021/04/13 04:20:33;;;;;;;6.33;3.30;;;;;;;;;;5105483;27;20304;-74
2021/04/13 04:23:00;;;;;;;5.17;3.50;;;;;;;;;;5119161;28;20288;-73
2021/04/13 04:25:32;;;;;;;8.50;3.90;;;;;;;;;;5103681;28;20283;-73
2021/04/13 04:28:02;;;;;;;5.57;3.03;;;;;;;;;;5113799;28;20233;-73
2021/04/13 04:30:31;;;;;;;4.53;3.70;;;;;;;;;;5106887;28;20200;-74
2021/04/13 04:32:59;;;;;;;4.47;3.40;;;;;;;;;;5117310;28;20281;-74
2021/04/13 04:35:32;;;;;;;4.57;3.30;;;;;;;;;;5117672;27;20730;-73
2021/04/13 04:38:07;;;;;;;6.33;4.10;;;;;;;;;;5117699;28;20232;-73
2021/04/13 04:40:39;;;;;;;6.90;3.77;;;;;;;;;;5125709;27;20228;-73
2021/04/13 04:43:08;;;;;;;4.70;3.30;;;;;;;;;;5125346;27;20220;-73
2021/04/13 04:45:38;;;;;;;5.70;3.67;;;;;;;;;;5118284;28;20249;-73
2021/04/13 04:48:23;;;;;;;7.47;3.37;;;;;;;;;;5112902;28;20236;-73
2021/04/13 04:50:50;;;;;;;5.67;3.23;;;;;;;;;;5112173;28;20672;-73
2021/04/13 04:53:18;;;;;;;5.40;3.60;;;;;;;;;;5111517;28;20311;-73
2021/04/13 04:55:47;;;;;;;4.70;3.57;;;;;;;;;;5115279;28;20263;-73
2021/04/13 04:58:14;;;;;;;4.97;3.43;;;;;;;;;;5117452;28;20533;-73
2021/04/13 05:00:41;;;;;;;5.60;3.33;;;;;;;;;;5114129;28;20510;-73
2021/04/13 05:03:08;;;;;;;5.37;3.30;;;;;;;;;;5106942;28;20476;-73
2021/04/13 05:05:36;;;;;;;4.20;2.87;;;;;;;;;;5118412;28;20818;-73
2021/04/13 05:08:03;;;;;;;4.90;3.27;;;;;;;;;;5116469;28;20482;-73
2021/04/13 05:10:31;;;;;;;5.10;3.67;;;;;;;;;;5118471;28;20473;-73
2021/04/13 05:12:58;;;;;;;4.60;3.47;;;;;;;;;;5113918;28;20569;-73
2021/04/13 05:15:25;;;;;;;6.20;3.97;;;;;;;;;;5118480;28;20496;-73
2021/04/13 05:17:52;;;;;;;6.93;3.80;;;;;;;;;;5112679;28;20197;-73
2021/04/13 05:20:20;;;;;;;6.27;4.07;;;;;;;;;;5117545;28;20280;-73
2021/04/13 05:22:47;;;;;;;5.43;3.80;;;;;;;;;;5118384;28;20439;-73
2021/04/13 05:25:16;;;;;;;4.33;3.47;;;;;;;;;;5116927;28;20788;-73
2021/04/13 05:27:43;;;;;;;9.23;4.07;;;;;;;;;;5117397;28;20205;-73
2021/04/13 05:30:11;;;;;;;8.17;5.67;;;;;;;;;;5110971;28;20250;-73
2021/04/13 05:32:38;;;;;;;6.40;3.97;;;;;;;;;;5112175;28;20282;-73
2021/04/13 05:35:06;;;;;;;7.90;3.90;;;;;;;;;;5108320;28;20290;-73
2021/04/13 05:37:33;;;;;;;7.63;3.63;;;;;;;;;;5117014;28;20296;-73
2021/04/13 05:40:02;;;;;;;7.87;4.10;;;;;;;;;;5117924;28;20269;-73
2021/04/13 05:42:30;;;;;;;9.03;3.63;;;;;;;;;;5116701;27;20291;-73
2021/04/13 05:44:58;;;;;;;7.50;3.63;;;;;;;;;;5117187;28;20466;-73
2021/04/13 05:47:25;;;;;;;5.50;3.60;;;;;;;;;;5115740;28;20224;-73
2021/04/13 05:49:52;;;;;;;5.93;3.97;;;;;;;;;;5118136;28;20287;-73
2021/04/13 05:52:19;;;;;;;5.57;3.57;;;;;;;;;;5116729;27;20216;-73
2021/04/13 05:54:46;;;;;;;9.90;4.40;;;;;;;;;;5117581;28;20286;-73
2021/04/13 05:57:14;;;;;;;7.27;3.90;;;;;;;;;;5102006;28;20201;-73
2021/04/13 05:59:42;;;;;;;7.43;3.80;;;;;;;;;;5114903;28;20284;-73
2021/04/13 06:02:12;;;;;;;10.23;4.37;;;;;;;;;;5111670;28;20280;-73
2021/04/13 06:04:39;;;;;;;5.53;3.93;;;;;;;;;;5122063;28;20738;-74
2021/04/13 06:07:06;;;;;;;7.60;3.87;;;;;;;;;;5114625;28;20209;-74
2021/04/13 06:09:33;;;;;;;5.87;3.70;;;;;;;;;;5101109;28;20252;-73
2021/04/13 06:12:00;;;;;;;6.53;3.73;;;;;;;;;;5105719;28;20648;-73
2021/04/13 06:14:29;;;;;;;8.43;3.87;;;;;;;;;;5104461;28;20313;-73
2021/04/13 06:16:56;;;;;;;6.50;4.10;;;;;;;;;;5119530;28;20204;-73
2021/04/13 06:19:23;;;;;;;7.67;3.83;;;;;;;;;;5117290;28;20243;-73
2021/04/13 06:21:51;;;;;;;8.80;4.13;;;;;;;;;;5121833;27;20204;-73
2021/04/13 06:24:18;;;;;;;6.27;3.90;;;;;;;;;;5122846;27;20315;-72
2021/04/13 06:26:45;;;;;;;6.63;3.73;;;;;;;;;;5120006;27;20228;-72
2021/04/13 06:29:13;;;;;;;8.30;3.73;;;;;;;;;;5114773;27;20558;-72
2021/04/13 06:31:41;;;;;;;6.00;3.47;;;;;;;;;;5121297;27;20796;-72
2021/04/13 06:34:09;;;;;;;6.43;3.93;;;;;;;;;;5119910;28;20220;-71
2021/04/13 06:36:38;;;;;;;6.50;4.07;;;;;;;;;;5122579;27;20204;-73
2021/04/13 06:39:06;;;;;;;5.53;4.13;;;;;;;;;;5119288;28;20197;-73
2021/04/13 06:41:46;;;;;;;7.53;4.37;;;;;;;;;;5116441;28;20220;-73
2021/04/13 06:44:26;;;;;;;7.83;4.03;;;;;;;;;;5118402;28;20252;-73
2021/04/13 06:46:58;;;;;;;6.03;3.80;;;;;;;;;;5119864;27;20268;-72
2021/04/13 06:49:31;;;;;;;5.83;4.07;;;;;;;;;;5117595;27;20563;-71
2021/04/13 06:52:04;;;;;;;9.00;4.33;;;;;;;;;;5130638;27;20287;-72
2021/04/13 06:54:39;;;;;;;10.63;4.60;;;;;;;;;;5111702;27;20228;-73
2021/04/13 06:57:33;;;;;;;9.47;4.57;;;;;;;;;;5119956;28;20750;-73
2021/04/13 07:00:08;;;;;;;9.20;5.20;;;;;;;;;;5084159;28;20239;-72
2021/04/13 07:02:40;;;;;;;9.10;4.57;;;;;;;;;;5119803;28;20674;-73
2021/04/13 07:05:09;;;;;;;12.97;4.83;;;;;;;;;;5119073;28;20223;-73
2021/04/13 07:07:50;;;;;;;8.17;4.57;;;;;;;;;;5119697;28;20296;-73
2021/04/13 07:10:21;;;;;;;7.03;4.60;;;;;;;;;;5120205;27;20719;-74
2021/04/13 07:12:51;;;;;;;8.60;4.27;;;;;;;;;;5119383;28;20286;-73
2021/04/13 07:15:22;;;;;;;9.53;5.07;;;;;;;;;;5119552;28;20247;-73
2021/04/13 07:17:55;;;;;;;9.67;3.97;;;;;;;;;;5119413;28;20203;-73
2021/04/13 07:20:23;;;;;;;9.77;4.23;;;;;;;;;;5119851;28;20694;-73
2021/04/13 07:22:52;;;;;;;5.43;3.60;;;;;;;;;;5120831;28;20751;-73
2021/04/13 07:25:21;;;;;;;7.30;3.87;;;;;;;;;;5114478;27;20233;-73
2021/04/13 07:27:51;;;;;;;5.83;4.17;;;;;;;;;;5100076;28;20202;-70
2021/04/13 07:30:22;;;;;;;7.13;4.80;;;;;;;;;;5107730;28;20223;-72
2021/04/13 07:32:53;;;;;;;5.80;3.87;;;;;;;;;;5107734;28;20340;-72
2021/04/13 07:35:20;;;;;;;8.93;4.43;;;;;;;;;;5103498;28;20264;-74
2021/04/13 07:37:49;;;;;;;6.10;3.60;;;;;;;;;;5111703;28;20644;-74
2021/04/13 07:40:20;;;;;;;6.70;4.20;;;;;;;;;;5119427;27;20231;-73
2021/04/13 07:42:49;;;;;;;9.07;4.50;;;;;;;;;;5115299;28;20194;-73
2021/04/13 07:45:20;;;;;;;7.40;4.20;;;;;;;;;;5111912;28;20228;-71
2021/04/13 07:48:09;;;;;;;7.40;3.70;;;;;;;;;;5113863;28;20278;-72
2021/04/13 07:50:37;;;;;;;8.33;4.30;;;;;;;;;;5115470;28;20228;-73
2021/04/13 07:53:09;;;;;;;8.10;4.57;;;;;;;;;;5117811;28;20311;-72
2021/04/13 07:55:37;;;;;;;7.17;4.40;;;;;;;;;;5119258;28;20255;-72
2021/04/13 07:58:08;;;;;;;8.27;4.40;;;;;;;;;;5118881;28;20280;-70
2021/04/13 08:00:38;;;;;;;8.47;3.73;;;;;;;;;;5117403;28;20197;-70
2021/04/13 08:03:08;;;;;;;8.23;4.20;;;;;;;;;;5117567;28;20232;-70
2021/04/13 08:05:40;;;;;;;7.40;4.67;;;;;;;;;;5117914;28;20217;-70
2021/04/13 08:08:08;;;;;;;11.77;4.37;;;;;;;;;;5117813;28;20716;-71
2021/04/13 08:10:36;;;;;;;8.23;4.40;;;;;;;;;;5119573;28;20578;-71
2021/04/13 08:13:06;;;;;;;5.03;3.47;;;;;;;;;;5111207;28;20221;-72
2021/04/13 08:15:44;;;;;;;7.70;4.67;;;;;;;;;;5111368;28;21202;-71
2021/04/13 08:18:17;;;;;;;10.23;4.30;;;;;;;;;;5104477;28;20279;-71
2021/04/13 08:20:45;;;;;;;6.63;3.90;;;;;;;;;;5112953;28;20660;-71
2021/04/13 08:23:14;;;;;;;5.47;3.73;;;;;;;;;;5118357;28;20208;-72
2021/04/13 08:25:45;;;;;;;7.40;3.73;;;;;;;;;;5117927;28;20236;-72
2021/04/13 08:28:15;;;;;;;6.17;4.23;;;;;;;;;;5119612;28;20209;-71
2021/04/13 08:30:57;;;;;;;6.03;3.70;;;;;;;;;;5117958;28;20300;-71
2021/04/13 08:33:34;;;;;;;4.93;3.30;;;;;;;;;;5098554;28;20221;-70
2021/04/13 08:36:06;;;;;;;7.67;3.87;;;;;;;;;;5115406;28;20251;-72
2021/04/13 08:38:45;;;;;;;4.70;3.37;;;;;;;;;;5118703;28;20236;-72
2021/04/13 08:41:22;;;;;;;4.13;3.53;;;;;;;;;;5118146;28;20264;-72
2021/04/13 08:43:51;;;;;;;6.50;3.17;;;;;;;;;;5119245;28;20208;-72
2021/04/13 08:46:22;;;;;;;6.93;3.30;;;;;;;;;;5110000;28;20260;-72
2021/04/13 08:48:55;;;;;;;4.07;2.80;;;;;;;;;;5118961;28;20602;-72
2021/04/13 08:51:32;;;;;;;3.57;2.47;;;;;;;;;;5108256;28;20236;-72
2021/04/13 08:54:32;;;;;;;3.67;2.67;;;;;;;;;;5102983;28;20256;-72
2021/04/13 08:57:02;;;;;;;4.33;2.37;;;;;;;;;;5044618;28;20651;-72
2021/04/13 08:59:40;;;;;;;2.30;2.10;;;;;;;;;;5103760;28;20296;-72
2021/04/13 09:02:15;;;;;;;3.70;2.37;;;;;;;;;;5112857;28;20259;-72
2021/04/13 09:04:43;;;;;;;4.23;2.13;;;;;;;;;;5112087;28;20226;-70
2021/04/13 09:07:14;;;;;;;2.83;2.17;;;;;;;;;;5106371;28;20383;-72
2021/04/13 09:09:44;;;;;;;2.50;2.30;;;;;;;;;;5117429;28;20578;-71
2021/04/13 09:12:13;;;;;;;3.00;2.30;;;;;;;;;;5117656;28;20304;-72
2021/04/13 09:14:46;;;;;;;3.60;2.40;;;;;;;;;;5116990;28;20307;-73
2021/04/13 09:17:35;;;;;;;3.77;2.77;;;;;;;;;;5103367;28;20213;-72
2021/04/13 09:20:12;;;;;;;2.30;2.10;;;;;;;;;;5105804;28;20205;-73
2021/04/13 09:22:46;;;;;;;4.87;3.07;;;;;;;;;;5105670;28;20235;-73
2021/04/13 09:25:16;;;;;;;3.10;2.57;;;;;;;;;;5100623;27;20692;-72
2021/04/13 09:27:46;;;;;;;3.87;2.60;;;;;;;;;;5116201;28;20288;-72
2021/04/13 09:30:25;;;;;;;3.07;2.30;;;;;;;;;;5117734;28;20228;-73
2021/04/13 09:33:01;;;;;;;2.20;2.00;;;;;;;;;;5111942;28;20728;-73
2021/04/13 09:35:38;;;;;;;3.30;2.30;;;;;;;;;;5109846;28;20308;-71
2021/04/13 09:38:17;;;;;;;3.47;2.47;;;;;;;;;;5103879;28;20211;-73
2021/04/13 09:40:50;;;;;;;3.80;2.47;;;;;;;;;;5131585;28;20231;-74
2021/04/13 09:43:27;;;;;;;2.67;2.17;;;;;;;;;;5104299;27;20193;-72
2021/04/13 09:46:00;;;;;;;4.67;2.37;;;;;;;;;;5105865;28;20315;-75
2021/04/13 09:48:42;;;;;;;5.53;2.67;;;;;;;;;;5113666;28;20288;-72
2021/04/13 09:51:15;;;;;;;3.87;2.90;;;;;;;;;;5094676;28;20232;-72
2021/04/13 09:53:58;;;;;;;3.40;2.93;;;;;;;;;;5115606;28;20266;-72
2021/04/13 09:56:30;;;;;;;3.73;3.43;;;;;;;;;;5108318;28;20920;-74
2021/04/13 09:59:08;;;;;;;4.77;3.20;;;;;;;;;;5106301;28;20664;-74
2021/04/13 10:01:54;;;;;;;5.27;3.47;;;;;;;;;;5105844;28;20654;-73
2021/04/13 10:04:32;;;;;;;4.57;2.90;;;;;;;;;;5106987;28;20285;-73
2021/04/13 10:07:06;;;;;;;5.10;3.20;;;;;;;;;;5104842;28;20205;-73
2021/04/13 10:09:39;;;;;;;3.13;2.80;;;;;;;;;;5104092;28;20261;-72
2021/04/13 10:12:25;;;;;;;3.40;3.10;;;;;;;;;;5116198;28;20658;-73
2021/04/13 10:15:14;;;;;;;3.47;3.17;;;;;;;;;;5106820;28;20320;-74
2021/04/13 10:17:44;;;;;;;3.70;2.70;;;;;;;;;;5107898;28;20641;-73
2021/04/13 10:20:17;;;;;;;5.10;3.03;;;;;;;;;;5117584;28;20201;-73
2021/04/13 10:22:52;;;;;;;4.10;3.20;;;;;;;;;;5116749;28;20283;-73
2021/04/13 10:25:39;;;;;;;4.67;3.00;;;;;;;;;;5104706;28;20251;-73
2021/04/13 10:28:26;;;;;;;6.77;3.40;;;;;;;;;;5100516;28;20211;-73
2021/04/13 10:31:20;;;;;;;4.03;2.87;;;;;;;;;;5104940;28;20280;-74
2021/04/13 10:34:02;;;;;;;3.33;2.63;;;;;;;;;;5070562;28;20221;-74
2021/04/13 10:36:53;;;;;;;4.50;3.03;;;;;;;;;;5104074;28;20212;-74
2021/04/13 10:39:39;;;;;;;4.57;3.27;;;;;;;;;;5106570;28;20228;-74
2021/04/13 10:42:25;;;;;;;3.10;2.87;;;;;;;;;;5104383;28;20201;-74
2021/04/13 10:45:06;;;;;;;3.57;3.10;;;;;;;;;;5106798;28;20285;-74
2021/04/13 10:47:47;;;;;;;4.40;3.17;;;;;;;;;;5115495;28;20281;-74
2021/04/13 10:50:27;;;;;;;5.13;2.60;;;;;;;;;;5116864;28;20291;-75
2021/04/13 10:53:18;;;;;;;3.47;3.07;;;;;;;;;;5109679;28;20291;-74
2021/04/13 10:56:05;;;;;;;3.70;3.20;;;;;;;;;;5120158;28;20228;-72
2021/04/13 10:58:47;;;;;;;3.47;2.73;;;;;;;;;;5102925;27;20229;-72
2021/04/13 11:01:25;;;;;;;3.53;2.37;;;;;;;;;;5101303;28;20204;-71
2021/04/13 11:04:09;;;;;;;4.03;3.10;;;;;;;;;;5120084;28;20224;-74
2021/04/13 11:07:09;;;;;;;3.43;2.73;;;;;;;;;;5119875;28;20295;-72
2021/04/13 11:09:43;;;;;;;6.03;2.70;;;;;;;;;;5057689;28;20290;-72
2021/04/13 11:12:21;;;;;;;3.20;2.90;;;;;;;;;;5044211;28;20234;-74
2021/04/13 11:15:03;;;;;;;2.97;2.70;;;;;;;;;;5093716;27;20609;-74
2021/04/13 11:17:51;;;;;;;3.13;2.70;;;;;;;;;;5101888;28;20232;-74
2021/04/13 11:20:20;;;;;;;3.80;2.67;;;;;;;;;;5113770;28;20254;-74
2021/04/13 11:22:58;;;;;;;3.97;2.80;;;;;;;;;;5110929;28;20244;-74
2021/04/13 11:25:37;;;;;;;3.10;2.60;;;;;;;;;;5116639;28;20268;-74
2021/04/13 11:28:28;;;;;;;3.53;2.40;;;;;;;;;;5117531;28;20219;-74
2021/04/13 11:31:16;;;;;;;5.87;2.30;;;;;;;;;;5050711;28;20282;-73
2021/04/13 11:33:55;;;;;;;3.53;2.90;;;;;;;;;;5110833;28;20312;-75
2021/04/13 11:36:32;;;;;;;2.53;2.30;;;;;;;;;;5106401;28;20271;-73
2021/04/13 11:39:02;;;;;;;2.40;2.20;;;;;;;;;;5118648;28;20255;-73
2021/04/13 11:41:47;;;;;;;3.30;2.63;;;;;;;;;;5132086;27;20641;-73
2021/04/13 11:44:20;;;;;;;2.40;2.20;;;;;;;;;;5105856;27;20221;-74
2021/04/13 11:46:53;;;;;;;5.97;2.30;;;;;;;;;;5109129;28;20201;-74
2021/04/13 11:49:23;;;;;;;3.30;2.70;;;;;;;;;;5107806;28;20209;-74
2021/04/13 11:51:56;;;;;;;2.70;2.17;;;;;;;;;;5108161;28;20647;-76
2021/04/13 11:54:52;;;;;;;3.23;2.97;;;;;;;;;;5110512;28;20227;-72
2021/04/13 11:57:21;;;;;;;2.60;2.30;;;;;;;;;;5111288;28;20282;-72
2021/04/13 12:00:07;;;;;;;2.37;2.17;;;;;;;;;;5119161;28;20630;-72
2021/04/13 12:02:34;;;;;;;3.47;2.47;;;;;;;;;;5110706;28;20280;-72
2021/04/13 12:05:02;;;;;;;3.77;2.03;;;;;;;;;;5105212;28;20224;-72
2021/04/13 12:07:43;;;;;;;4.60;2.30;;;;;;;;;;5112365;28;20288;-72
2021/04/13 12:10:13;;;;;;;2.67;2.47;;;;;;;;;;5117765;28;20288;-72
2021/04/13 12:12:50;;;;;;;2.13;1.93;;;;;;;;;;5113338;28;20728;-72
2021/04/13 12:15:34;;;;;;;3.50;2.27;;;;;;;;;;5116487;28;20281;-71
2021/04/13 12:18:03;;;;;;;3.73;2.00;;;;;;;;;;5108001;28;20197;-72
2021/04/13 12:20:47;;;;;;;2.20;2.10;;;;;;;;;;5104401;28;20206;-72
2021/04/13 12:23:33;;;;;;;1.90;1.73;;;;;;;;;;5102035;28;20205;-72
2021/04/13 12:26:05;;;;;;;1.77;1.67;;;;;;;;;;5118482;28;20256;-72
2021/04/13 12:28:49;;;;;;;2.67;1.80;;;;;;;;;;5118085;28;20200;-72
2021/04/13 12:31:23;;;;;;;2.10;1.87;;;;;;;;;;5104904;28;20577;-71
2021/04/13 12:33:56;;;;;;;2.30;1.50;;;;;;;;;;5117906;28;20225;-72
2021/04/13 12:36:41;;;;;;;2.23;1.67;;;;;;;;;;5105307;28;20209;-72
2021/04/13 12:39:09;;;;;;;1.40;1.30;;;;;;;;;;5116766;28;20222;-71
2021/04/13 12:41:50;;;;;;;1.63;1.53;;;;;;;;;;5125465;27;20603;-71
2021/04/13 12:44:22;;;;;;;1.60;1.50;;;;;;;;;;5118747;28;20225;-71
2021/04/13 12:46:51;;;;;;;2.07;1.73;;;;;;;;;;5116378;28;20201;-71
2021/04/13 12:49:23;;;;;;;2.33;1.73;;;;;;;;;;5104821;28;20736;-71
2021/04/13 12:51:52;;;;;;;2.17;1.43;;;;;;;;;;5105026;28;20225;-71
2021/04/13 12:54:30;;;;;;;2.53;1.23;;;;;;;;;;5117298;28;20293;-71
2021/04/13 12:57:02;;;;;;;2.53;1.80;;;;;;;;;;5118804;28;20236;-71
2021/04/13 12:59:30;;;;;;;3.37;1.83;;;;;;;;;;5104755;28;20279;-71
2021/04/13 13:01:57;;;;;;;3.13;2.27;;;;;;;;;;5099544;28;20205;-71
2021/04/13 13:04:33;;;;;;;1.93;1.47;;;;;;;;;;5098395;28;20225;-71
2021/04/13 13:07:00;;;;;;;2.13;1.20;;;;;;;;;;5117182;28;20231;-71
2021/04/13 13:09:30;;;;;;;2.87;1.10;;;;;;;;;;5103764;28;20284;-71
2021/04/13 13:11:59;;;;;;;2.00;1.40;;;;;;;;;;5118718;28;20248;-71
2021/04/13 13:14:27;;;;;;;1.53;1.43;;;;;;;;;;5104457;28;20285;-71
2021/04/13 13:16:56;;;;;;;1.53;1.40;;;;;;;;;;5106543;28;20201;-71
2021/04/13 13:19:28;;;;;;;1.53;1.10;;;;;;;;;;5117275;28;20232;-71
2021/04/13 13:21:56;;;;;;;1.37;1.20;;;;;;;;;;5104785;28;20208;-71
2021/04/13 13:24:26;;;;;;;5.40;1.80;;;;;;;;;;5117869;28;20237;-71
2021/04/13 13:26:53;;;;;;;2.27;1.70;;;;;;;;;;5104572;28;20225;-71
2021/04/13 13:29:20;;;;;;;1.73;1.20;;;;;;;;;;5116140;28;20209;-71
2021/04/13 13:31:48;;;;;;;2.57;1.40;;;;;;;;;;5115635;28;20234;-71
2021/04/13 13:34:17;;;;;;;4.70;1.33;;;;;;;;;;5100386;28;20312;-71
2021/04/13 13:36:44;;;;;;;2.93;1.53;;;;;;;;;;5117476;28;20244;-71
2021/04/13 13:39:13;;;;;;;2.03;1.43;;;;;;;;;;5116866;28;20243;-71
2021/04/13 13:41:40;;;;;;;1.77;1.50;;;;;;;;;;5138909;27;20268;-71
2021/04/13 13:44:20;;;;;;;2.73;1.50;;;;;;;;;;5123980;27;20544;-71
2021/04/13 13:46:57;;;;;;;2.20;1.70;;;;;;;;;;5117453;28;20246;-70
2021/04/13 13:49:36;;;;;;;3.30;1.57;;;;;;;;;;5102867;28;20258;-71
2021/04/13 13:52:04;;;;;;;1.70;1.40;;;;;;;;;;5117169;28;20201;-70
2021/04/13 13:54:32;;;;;;;2.50;1.53;;;;;;;;;;5117896;28;20320;-71
2021/04/13 13:57:09;;;;;;;2.33;1.80;;;;;;;;;;5103459;28;20756;-71
2021/04/13 13:59:49;;;;;;;1.63;1.53;;;;;;;;;;5111038;28;20727;-71
2021/04/13 14:02:28;;;;;;;1.50;1.40;;;;;;;;;;5115453;28;20260;-71
2021/04/13 14:05:08;;;;;;;3.30;1.93;;;;;;;;;;5117270;28;20648;-71
2021/04/13 14:07:36;;;;;;;3.63;1.83;;;;;;;;;;5117710;28;20682;-70
2021/04/13 14:10:10;;;;;;;1.47;1.37;;;;;;;;;;5101332;28;20197;-71
2021/04/13 14:12:40;;;;;;;1.50;1.40;;;;;;;;;;5108034;28;20569;-71
2021/04/13 14:15:17;;;;;;;2.93;1.80;;;;;;;;;;5116596;28;20304;-71
2021/04/13 14:17:45;;;;;;;3.00;2.03;;;;;;;;;;5104150;28;20283;-71
2021/04/13 14:20:14;;;;;;;4.10;1.83;;;;;;;;;;5118552;28;20211;-71
2021/04/13 14:22:41;;;;;;;4.27;1.70;;;;;;;;;;5121862;28;20272;-71
2021/04/13 14:25:11;;;;;;;3.13;1.53;;;;;;;;;;5119939;28;20264;-70
2021/04/13 14:27:39;;;;;;;2.77;1.80;;;;;;;;;;5111098;28;20201;-71
2021/04/13 14:30:08;;;;;;;1.70;1.57;;;;;;;;;;5113844;28;20211;-71
2021/04/13 14:32:36;;;;;;;4.63;1.60;;;;;;;;;;5116853;28;20276;-71
2021/04/13 14:35:06;;;;;;;2.77;1.70;;;;;;;;;;5108531;28;20227;-71
2021/04/13 14:37:34;;;;;;;1.33;1.23;;;;;;;;;;5119299;28;20205;-71
2021/04/13 14:40:03;;;;;;;3.50;1.53;;;;;;;;;;5129931;27;20236;-71
2021/04/13 14:42:50;;;;;;;1.67;1.40;;;;;;;;;;5110324;28;20204;-71
2021/04/13 14:45:18;;;;;;;3.73;1.60;;;;;;;;;;5119731;28;20731;-70
2021/04/13 14:47:46;;;;;;;2.63;1.40;;;;;;;;;;5103073;28;20204;-72
2021/04/13 14:50:19;;;;;;;2.00;1.50;;;;;;;;;;5120432;28;20283;-70
2021/04/13 14:52:48;;;;;;;2.60;1.50;;;;;;;;;;5121024;28;20205;-71
2021/04/13 14:55:16;;;;;;;1.67;1.40;;;;;;;;;;5119224;28;20289;-71
2021/04/13 14:57:43;;;;;;;1.63;1.53;;;;;;;;;;5105067;28;20206;-71
2021/04/13 15:00:12;;;;;;;1.50;1.47;;;;;;;;;;5117012;28;20233;-71
2021/04/13 15:02:39;;;;;;;3.00;2.50;;;;;;;;;;5100952;27;20561;-71
2021/04/13 15:05:07;;;;;;;3.40;1.60;;;;;;;;;;5115255;28;20224;-71
2021/04/13 15:07:35;;;;;;;1.70;1.60;;;;;;;;;;5107186;28;20264;-71
2021/04/13 15:10:04;;;;;;;1.73;1.63;;;;;;;;;;5115605;28;20206;-71
2021/04/13 15:12:31;;;;;;;4.20;1.80;;;;;;;;;;5108517;28;21100;-71